Windfall, Indiana
Current Conditions -  °F | °C
As of 7:15 AM on Monday 24 Nov 2014 (Local Time) from KOKK Reporting Station
Broken Clouds Broken Clouds  
Wind Chill: 54°   Ceiling: 9000
Heat Index: 54°   Visibility: 10mi
Dew Point: 48°   Wind: 18mph
Humidity: 82%   Direction: 220°SW
Pressure: 29.15"   Gusts: 25mph
Location:  40.36°N, 85.96°W
Report Text: KOKK 241215Z AUTO 22016G22KT 10SM SCT046 SCT070 BKN090 12/09 A2915 RMK AO1
Loading
Personal Weather Stations






























Interactive Weather Map New forecast layout! Learn more

10-Day Weather Forecast

Advertisements
Track Severe Weather on mobile